Time;durP1;ratioP1;P1;durP2;ratioP2;P2;SDS_P1;SDS_P2;PMS_P1;PMS_P2;Temp;Humidity;BMP_temperature;BMP_pressure;BME280_temperature;BME280_humidity;BME280_pressure;Samples;Min_cycle;Max_cycle;Signal;HPM_P1;HPM_P2
2021/12/01 00:01:29;;;;;;;44.65;18.00;;;;;;;;;;5075462;28;20102;-76
2021/12/01 00:03:55;;;;;;;45.63;18.75;;;;;;;;;;5091754;28;20395;-76
2021/12/01 00:06:21;;;;;;;48.08;19.40;;;;;;;;;;5090748;28;20512;-76
2021/12/01 00:08:47;;;;;;;41.53;17.20;;;;;;;;;;5091733;28;20123;-76
2021/12/01 00:11:13;;;;;;;40.25;16.50;;;;;;;;;;5086792;28;20044;-77
2021/12/01 00:13:39;;;;;;;41.30;17.83;;;;;;;;;;5089310;28;20043;-76
2021/12/01 00:16:07;;;;;;;45.40;17.98;;;;;;;;;;5090863;28;20460;-77
2021/12/01 00:18:33;;;;;;;39.28;17.23;;;;;;;;;;5091261;28;20937;-77
2021/12/01 00:20:59;;;;;;;35.03;16.17;;;;;;;;;;5090799;28;20123;-77
2021/12/01 00:23:26;;;;;;;44.53;17.73;;;;;;;;;;5090993;28;20100;-76
2021/12/01 00:25:52;;;;;;;35.45;16.40;;;;;;;;;;5091036;28;20397;-76
2021/12/01 00:28:18;;;;;;;40.83;18.13;;;;;;;;;;5090837;28;20040;-77
2021/12/01 00:30:45;;;;;;;36.75;18.98;;;;;;;;;;5082256;28;20083;-76
2021/12/01 00:33:12;;;;;;;38.15;18.73;;;;;;;;;;5071238;28;20047;-76
2021/12/01 00:35:38;;;;;;;36.00;17.65;;;;;;;;;;5087678;28;20055;-76
2021/12/01 00:38:04;;;;;;;38.53;19.88;;;;;;;;;;5081548;28;20037;-76
2021/12/01 00:40:31;;;;;;;43.88;20.13;;;;;;;;;;5083409;28;20037;-76
2021/12/01 00:42:57;;;;;;;39.65;20.13;;;;;;;;;;5078288;28;20040;-76
2021/12/01 00:45:25;;;;;;;38.97;19.88;;;;;;;;;;5086351;28;20089;-75
2021/12/01 00:47:53;;;;;;;40.65;22.58;;;;;;;;;;5083326;28;20040;-75
2021/12/01 00:50:23;;;;;;;47.20;21.73;;;;;;;;;;5082221;28;20410;-76
2021/12/01 00:52:49;;;;;;;49.55;23.60;;;;;;;;;;5086993;28;20440;-75
2021/12/01 00:55:15;;;;;;;43.13;21.95;;;;;;;;;;5082590;28;20056;-76
2021/12/01 00:57:41;;;;;;;47.30;23.20;;;;;;;;;;5060291;28;20040;-75
2021/12/01 01:00:08;;;;;;;45.53;22.95;;;;;;;;;;5083355;28;20375;-75
2021/12/01 01:02:35;;;;;;;38.10;19.33;;;;;;;;;;5090406;28;20115;-75
2021/12/01 01:05:01;;;;;;;47.72;23.33;;;;;;;;;;5084496;28;20044;-76
2021/12/01 01:07:27;;;;;;;44.80;21.90;;;;;;;;;;5085638;28;20071;-75
2021/12/01 01:09:53;;;;;;;48.65;22.70;;;;;;;;;;5085849;28;20090;-75
2021/12/01 01:18:05;;;;;;;45.53;23.40;;;;;;;;;;5084125;28;20537;-75
2021/12/01 01:20:31;;;;;;;50.63;23.17;;;;;;;;;;5083531;28;20101;-76
2021/12/01 01:22:57;;;;;;;53.95;22.75;;;;;;;;;;5086433;28;20409;-77
2021/12/01 01:25:23;;;;;;;48.15;22.58;;;;;;;;;;5086049;28;20110;-76
2021/12/01 01:27:49;;;;;;;49.08;21.95;;;;;;;;;;5088680;28;20044;-76
2021/12/01 01:30:15;;;;;;;47.67;21.67;;;;;;;;;;5071761;28;20044;-77
2021/12/01 01:32:41;;;;;;;40.58;19.92;;;;;;;;;;5066754;28;20059;-77
2021/12/01 01:35:07;;;;;;;38.65;19.05;;;;;;;;;;5075060;28;20058;-77
2021/12/01 01:37:33;;;;;;;40.40;18.38;;;;;;;;;;5081153;28;20039;-77
2021/12/01 01:39:59;;;;;;;30.15;14.15;;;;;;;;;;5081305;28;20077;-77
2021/12/01 01:42:25;;;;;;;27.75;13.98;;;;;;;;;;5084821;28;20043;-77
2021/12/01 01:44:51;;;;;;;36.25;15.80;;;;;;;;;;5084374;28;20086;-77
2021/12/01 01:47:18;;;;;;;25.30;13.02;;;;;;;;;;5089457;28;20040;-78
2021/12/01 01:50:12;;;;;;;26.45;13.73;;;;;;;;;;5092881;28;20120;-77
2021/12/01 01:52:38;;;;;;;26.90;12.85;;;;;;;;;;5106279;22;20044;-62
2021/12/01 01:55:05;;;;;;;30.88;14.27;;;;;;;;;;5113850;28;20161;-62
2021/12/01 01:57:31;;;;;;;25.05;13.32;;;;;;;;;;5113434;28;20043;-62
2021/12/01 01:59:57;;;;;;;27.95;12.98;;;;;;;;;;5114044;28;20058;-62
2021/12/01 02:02:23;;;;;;;34.67;14.50;;;;;;;;;;5113927;28;20485;-62
2021/12/01 02:04:49;;;;;;;26.23;12.80;;;;;;;;;;5112306;28;20040;-62
2021/12/01 02:07:15;;;;;;;29.55;13.77;;;;;;;;;;5114121;28;20123;-62
2021/12/01 02:09:41;;;;;;;24.08;11.93;;;;;;;;;;5113313;28;20039;-62
2021/12/01 02:12:07;;;;;;;27.20;12.43;;;;;;;;;;5113438;28;20078;-62
2021/12/01 02:14:33;;;;;;;25.45;12.50;;;;;;;;;;5113459;28;20477;-63
2021/12/01 02:16:59;;;;;;;25.08;12.02;;;;;;;;;;5113468;28;20047;-63
2021/12/01 02:19:25;;;;;;;29.50;12.73;;;;;;;;;;5113190;28;20050;-62
2021/12/01 02:21:52;;;;;;;31.05;12.57;;;;;;;;;;5113569;28;20039;-63
2021/12/01 02:24:21;;;;;;;24.42;11.73;;;;;;;;;;5113036;28;20405;-63
2021/12/01 02:26:49;;;;;;;24.30;10.25;;;;;;;;;;5113318;28;20036;-62
2021/12/01 02:29:17;;;;;;;26.45;11.25;;;;;;;;;;5095431;28;20086;-62
2021/12/01 02:31:44;;;;;;;19.95;10.10;;;;;;;;;;5094378;28;20505;-62
2021/12/01 02:34:11;;;;;;;18.05;9.48;;;;;;;;;;5113479;28;20039;-62
2021/12/01 02:36:38;;;;;;;17.98;9.48;;;;;;;;;;5095231;28;20485;-62
2021/12/01 02:39:05;;;;;;;21.58;10.07;;;;;;;;;;5113343;28;20042;-62
2021/12/01 02:41:32;;;;;;;21.38;10.23;;;;;;;;;;5093962;28;20047;-62
2021/12/01 02:43:59;;;;;;;22.85;10.02;;;;;;;;;;5112633;28;20063;-62
2021/12/01 02:46:25;;;;;;;17.00;7.90;;;;;;;;;;5094081;28;20061;-62
2021/12/01 02:48:51;;;;;;;24.30;10.10;;;;;;;;;;5116202;27;20382;-62
2021/12/01 02:51:19;;;;;;;19.85;9.68;;;;;;;;;;5094146;28;20043;-62
2021/12/01 02:53:45;;;;;;;18.65;9.27;;;;;;;;;;5112814;28;20493;-62
2021/12/01 02:56:11;;;;;;;16.48;8.13;;;;;;;;;;5109251;28;20035;-62
2021/12/01 02:58:40;;;;;;;14.90;8.07;;;;;;;;;;5112535;28;20464;-62
2021/12/01 03:01:08;;;;;;;14.13;7.55;;;;;;;;;;5111164;28;20386;-62
2021/12/01 03:03:35;;;;;;;12.02;6.95;;;;;;;;;;5092874;28;20071;-62
2021/12/01 03:06:03;;;;;;;13.52;6.72;;;;;;;;;;5110889;28;20548;-63
2021/12/01 03:08:29;;;;;;;12.05;6.07;;;;;;;;;;5092577;28;20075;-62
2021/12/01 03:10:55;;;;;;;7.50;4.45;;;;;;;;;;5112197;28;20501;-63
2021/12/01 03:13:23;;;;;;;7.13;3.88;;;;;;;;;;5112312;28;20114;-62
2021/12/01 03:15:49;;;;;;;6.60;2.92;;;;;;;;;;5094100;28;20046;-62
2021/12/01 03:18:15;;;;;;;4.78;3.05;;;;;;;;;;5112480;28;20046;-62
2021/12/01 03:20:42;;;;;;;8.70;3.45;;;;;;;;;;5112722;28;20046;-62
2021/12/01 03:23:08;;;;;;;5.00;3.17;;;;;;;;;;5112363;28;20042;-62
2021/12/01 03:25:34;;;;;;;6.60;3.15;;;;;;;;;;5111593;28;20044;-62
2021/12/01 03:28:01;;;;;;;4.43;2.95;;;;;;;;;;5112183;28;20031;-62
2021/12/01 03:30:27;;;;;;;5.18;3.13;;;;;;;;;;5112181;28;20043;-62
2021/12/01 03:32:53;;;;;;;6.07;3.70;;;;;;;;;;5112291;28;20039;-62
2021/12/01 03:35:19;;;;;;;6.50;3.50;;;;;;;;;;5094218;28;20165;-62
2021/12/01 03:37:47;;;;;;;6.75;3.80;;;;;;;;;;5111409;28;20058;-62
2021/12/01 03:40:14;;;;;;;6.65;3.47;;;;;;;;;;5111771;28;20312;-62
2021/12/01 03:42:41;;;;;;;5.28;3.45;;;;;;;;;;5093728;28;20393;-62
2021/12/01 03:45:07;;;;;;;5.55;3.25;;;;;;;;;;5112102;28;20057;-62
2021/12/01 03:47:34;;;;;;;7.22;3.38;;;;;;;;;;5112315;28;20039;-62
2021/12/01 03:50:00;;;;;;;5.97;4.20;;;;;;;;;;5093297;28;20130;-62
2021/12/01 03:52:27;;;;;;;9.25;3.88;;;;;;;;;;5092535;28;20101;-62
2021/12/01 03:54:53;;;;;;;6.43;3.90;;;;;;;;;;5111460;28;20362;-62
2021/12/01 03:57:19;;;;;;;5.88;4.15;;;;;;;;;;5112152;28;20039;-62
2021/12/01 03:59:45;;;;;;;9.05;4.38;;;;;;;;;;5112046;28;20147;-62
2021/12/01 04:02:11;;;;;;;6.75;4.57;;;;;;;;;;5093223;28;20195;-63
2021/12/01 04:04:37;;;;;;;6.22;4.43;;;;;;;;;;5093656;28;20304;-62
2021/12/01 04:07:04;;;;;;;7.97;4.40;;;;;;;;;;5111005;28;20032;-62
2021/12/01 04:09:30;;;;;;;6.45;4.43;;;;;;;;;;5112236;28;20038;-63
2021/12/01 04:11:57;;;;;;;5.63;4.22;;;;;;;;;;5111470;28;20089;-62
2021/12/01 04:14:23;;;;;;;6.45;4.43;;;;;;;;;;5111714;28;20032;-62
2021/12/01 04:16:49;;;;;;;8.60;5.22;;;;;;;;;;5111997;28;20032;-63
2021/12/01 04:19:15;;;;;;;5.47;3.22;;;;;;;;;;5093662;28;20039;-63
2021/12/01 04:21:41;;;;;;;5.45;3.70;;;;;;;;;;5110194;28;20035;-62
2021/12/01 04:24:08;;;;;;;5.55;3.42;;;;;;;;;;5093186;28;20485;-63
2021/12/01 04:26:35;;;;;;;5.20;3.78;;;;;;;;;;5112588;28;20115;-63
2021/12/01 04:29:02;;;;;;;5.32;3.78;;;;;;;;;;5116091;28;20050;-62
2021/12/01 04:31:32;;;;;;;5.28;3.55;;;;;;;;;;5115243;28;20099;-63
2021/12/01 04:33:58;;;;;;;4.78;3.30;;;;;;;;;;5115734;28;20039;-63
2021/12/01 04:36:29;;;;;;;4.32;3.05;;;;;;;;;;5096605;28;20053;-62
2021/12/01 04:38:55;;;;;;;3.22;2.40;;;;;;;;;;5097976;28;20043;-62
2021/12/01 04:41:22;;;;;;;3.65;2.80;;;;;;;;;;5096536;28;20039;-62
2021/12/01 04:43:48;;;;;;;3.05;2.25;;;;;;;;;;5115823;28;20396;-62
2021/12/01 04:46:16;;;;;;;2.45;2.00;;;;;;;;;;5115592;28;20096;-62
2021/12/01 04:48:42;;;;;;;3.03;2.40;;;;;;;;;;5118169;27;20082;-62
2021/12/01 04:51:08;;;;;;;3.53;2.25;;;;;;;;;;5112352;28;20084;-62
2021/12/01 04:53:34;;;;;;;3.95;2.45;;;;;;;;;;5115126;28;20035;-62
2021/12/01 04:56:00;;;;;;;2.92;2.20;;;;;;;;;;5096836;28;20044;-62
2021/12/01 04:58:28;;;;;;;3.03;2.10;;;;;;;;;;5115190;28;20112;-63
2021/12/01 05:00:54;;;;;;;2.67;2.20;;;;;;;;;;5113902;28;20043;-63
2021/12/01 05:03:20;;;;;;;2.50;2.03;;;;;;;;;;5098282;28;20052;-62
2021/12/01 05:05:46;;;;;;;3.95;2.42;;;;;;;;;;5113431;28;20438;-63
2021/12/01 05:08:12;;;;;;;2.53;1.88;;;;;;;;;;5094934;28;20043;-62
2021/12/01 05:10:38;;;;;;;2.67;2.00;;;;;;;;;;5096075;28;20035;-62
2021/12/01 05:13:04;;;;;;;2.70;2.15;;;;;;;;;;5115030;28;20074;-62
2021/12/01 05:15:31;;;;;;;2.80;2.30;;;;;;;;;;5114484;28;20048;-62
2021/12/01 05:17:57;;;;;;;3.45;2.28;;;;;;;;;;5096559;28;20150;-62
2021/12/01 05:20:23;;;;;;;2.42;1.80;;;;;;;;;;5114402;28;20470;-62
2021/12/01 05:22:49;;;;;;;2.60;1.95;;;;;;;;;;5114607;28;20063;-62
2021/12/01 05:25:15;;;;;;;3.42;2.22;;;;;;;;;;5114006;28;20039;-63
2021/12/01 05:27:41;;;;;;;2.63;2.10;;;;;;;;;;5114272;28;20047;-63
2021/12/01 05:30:07;;;;;;;2.88;2.20;;;;;;;;;;5114564;28;20083;-62
2021/12/01 05:32:34;;;;;;;5.18;2.38;;;;;;;;;;5114105;28;20039;-63
2021/12/01 05:35:00;;;;;;;2.75;1.98;;;;;;;;;;5113815;28;20032;-62
2021/12/01 05:37:26;;;;;;;3.55;2.05;;;;;;;;;;5114557;28;20035;-62
2021/12/01 05:39:52;;;;;;;3.05;2.33;;;;;;;;;;5113015;28;20123;-62
2021/12/01 05:42:18;;;;;;;2.50;2.13;;;;;;;;;;5114095;28;20111;-62
2021/12/01 05:44:45;;;;;;;3.03;1.88;;;;;;;;;;5114065;28;20070;-62
2021/12/01 05:47:11;;;;;;;2.97;2.08;;;;;;;;;;5114192;28;20044;-62
2021/12/01 05:49:41;;;;;;;3.97;2.10;;;;;;;;;;5114187;28;20035;-62
2021/12/01 05:52:08;;;;;;;1.80;1.42;;;;;;;;;;5113090;28;20446;-62
2021/12/01 05:54:34;;;;;;;2.38;1.75;;;;;;;;;;5094090;28;20067;-62
2021/12/01 05:57:00;;;;;;;3.60;2.28;;;;;;;;;;5111352;28;20080;-62
2021/12/01 05:59:26;;;;;;;2.22;1.83;;;;;;;;;;5113775;28;20039;-62
2021/12/01 06:01:52;;;;;;;1.98;1.65;;;;;;;;;;5093878;28;20047;-62
2021/12/01 06:04:18;;;;;;;3.38;2.22;;;;;;;;;;5113441;28;20069;-63
2021/12/01 06:06:44;;;;;;;2.38;1.60;;;;;;;;;;5112969;28;20073;-63
2021/12/01 06:09:10;;;;;;;4.18;1.75;;;;;;;;;;5107870;28;20039;-63
2021/12/01 06:11:36;;;;;;;2.90;1.48;;;;;;;;;;5112810;28;20051;-62
2021/12/01 06:14:02;;;;;;;2.03;1.50;;;;;;;;;;5113647;28;20039;-62
2021/12/01 06:16:29;;;;;;;2.50;1.70;;;;;;;;;;5113781;28;20067;-62
2021/12/01 06:18:55;;;;;;;2.00;1.58;;;;;;;;;;5113142;28;20039;-62
2021/12/01 06:21:21;;;;;;;2.17;1.55;;;;;;;;;;5113695;28;20036;-62
2021/12/01 06:23:47;;;;;;;2.40;1.80;;;;;;;;;;5112551;28;20047;-62
2021/12/01 06:26:13;;;;;;;3.47;1.80;;;;;;;;;;5112817;28;20077;-62
2021/12/01 06:28:40;;;;;;;2.00;1.80;;;;;;;;;;5113465;28;20035;-62
2021/12/01 06:31:06;;;;;;;1.80;1.50;;;;;;;;;;5094530;28;20066;-62
2021/12/01 06:33:32;;;;;;;2.90;2.00;;;;;;;;;;5113693;28;20036;-62
2021/12/01 06:35:58;;;;;;;2.30;1.95;;;;;;;;;;5095276;28;20446;-62
2021/12/01 06:38:25;;;;;;;3.60;2.20;;;;;;;;;;5112899;28;20036;-62
2021/12/01 06:40:51;;;;;;;2.10;1.70;;;;;;;;;;5112262;28;20039;-62
2021/12/01 06:43:17;;;;;;;2.45;1.75;;;;;;;;;;5112615;28;20122;-62
2021/12/01 06:45:43;;;;;;;2.53;1.83;;;;;;;;;;5113106;28;20043;-62
2021/12/01 06:48:09;;;;;;;3.20;2.10;;;;;;;;;;5111931;28;20076;-62
2021/12/01 06:50:35;;;;;;;2.25;1.85;;;;;;;;;;5115571;27;20039;-63
2021/12/01 06:53:01;;;;;;;3.30;2.10;;;;;;;;;;5112767;28;20382;-62
2021/12/01 06:55:27;;;;;;;2.47;2.10;;;;;;;;;;5112309;28;20032;-62
2021/12/01 06:57:53;;;;;;;3.28;2.00;;;;;;;;;;5109701;28;20031;-62
2021/12/01 07:00:20;;;;;;;2.92;1.92;;;;;;;;;;5111745;28;20035;-62
2021/12/01 07:02:47;;;;;;;2.20;1.73;;;;;;;;;;5112715;28;20465;-62
2021/12/01 07:05:13;;;;;;;2.05;1.85;;;;;;;;;;5094227;28;20086;-62
2021/12/01 07:07:39;;;;;;;2.80;2.35;;;;;;;;;;5112487;28;20040;-62
2021/12/01 07:10:06;;;;;;;2.45;2.20;;;;;;;;;;5112629;28;20042;-62
2021/12/01 07:12:32;;;;;;;3.05;2.28;;;;;;;;;;5109315;28;20035;-62
2021/12/01 07:14:58;;;;;;;2.28;1.77;;;;;;;;;;5111734;28;20028;-62
2021/12/01 07:17:24;;;;;;;2.90;2.33;;;;;;;;;;5112187;28;20032;-62
2021/12/01 07:19:50;;;;;;;2.50;2.10;;;;;;;;;;5112751;28;20122;-61
2021/12/01 07:22:16;;;;;;;4.57;2.08;;;;;;;;;;5105526;28;20038;-62
2021/12/01 07:24:43;;;;;;;2.60;1.90;;;;;;;;;;5109937;28;20042;-62
2021/12/01 07:27:09;;;;;;;2.63;2.03;;;;;;;;;;5109772;28;20035;-62
2021/12/01 07:29:35;;;;;;;2.33;2.00;;;;;;;;;;5108510;28;20035;-62
2021/12/01 07:32:01;;;;;;;2.00;1.73;;;;;;;;;;5111172;28;20541;-62
2021/12/01 07:34:27;;;;;;;3.50;2.20;;;;;;;;;;5112578;28;20055;-62
2021/12/01 07:36:53;;;;;;;2.17;1.80;;;;;;;;;;5111616;28;20488;-63
2021/12/01 07:39:20;;;;;;;2.75;1.50;;;;;;;;;;5111144;28;20118;-62
2021/12/01 07:41:46;;;;;;;1.50;1.40;;;;;;;;;;5111333;28;20108;-62
2021/12/01 07:44:12;;;;;;;1.65;1.45;;;;;;;;;;5108205;28;20062;-62
2021/12/01 07:46:39;;;;;;;2.30;1.50;;;;;;;;;;5111361;28;20067;-62
2021/12/01 07:49:05;;;;;;;1.75;1.65;;;;;;;;;;5111890;28;20374;-62
2021/12/01 07:51:31;;;;;;;1.95;1.75;;;;;;;;;;5109433;28;20039;-62
2021/12/01 07:53:57;;;;;;;1.85;1.30;;;;;;;;;;5102806;22;20482;-79
2021/12/01 07:56:23;;;;;;;2.03;1.52;;;;;;;;;;5086871;28;20114;-79
2021/12/01 07:58:49;;;;;;;2.20;1.58;;;;;;;;;;5090924;28;20036;-78
2021/12/01 08:01:15;;;;;;;2.10;1.73;;;;;;;;;;5090362;28;20074;-78
2021/12/01 08:03:41;;;;;;;2.08;1.50;;;;;;;;;;5091624;28;20071;-78
2021/12/01 08:06:08;;;;;;;1.38;1.27;;;;;;;;;;5090697;28;20048;-77
2021/12/01 08:08:34;;;;;;;2.05;1.77;;;;;;;;;;5091074;28;20040;-78
2021/12/01 08:11:00;;;;;;;2.40;1.33;;;;;;;;;;5089641;28;20039;-77
2021/12/01 08:13:26;;;;;;;2.40;1.80;;;;;;;;;;5090684;28;20043;-76
2021/12/01 08:15:52;;;;;;;2.47;1.95;;;;;;;;;;5091504;28;20047;-77
2021/12/01 08:18:18;;;;;;;3.67;2.08;;;;;;;;;;5091565;28;20067;-74
2021/12/01 08:20:45;;;;;;;2.95;2.20;;;;;;;;;;5089349;28;20106;-76
2021/12/01 08:23:11;;;;;;;1.98;1.60;;;;;;;;;;5088863;28;20036;-76
2021/12/01 08:25:37;;;;;;;3.00;2.40;;;;;;;;;;5091371;28;20043;-75
2021/12/01 08:28:03;;;;;;;3.25;2.42;;;;;;;;;;5090994;28;20517;-75
2021/12/01 08:30:30;;;;;;;2.35;2.05;;;;;;;;;;5089981;28;20494;-76
2021/12/01 08:32:57;;;;;;;2.70;1.77;;;;;;;;;;5089774;28;20100;-76
2021/12/01 08:35:24;;;;;;;3.78;2.33;;;;;;;;;;5089984;28;20048;-76
2021/12/01 08:37:49;;;;;;;4.63;2.60;;;;;;;;;;5091089;28;20439;-75
2021/12/01 08:40:16;;;;;;;2.75;2.45;;;;;;;;;;5082467;28;20032;-75
2021/12/01 08:42:42;;;;;;;3.45;2.80;;;;;;;;;;5087302;28;20076;-75
2021/12/01 08:45:09;;;;;;;3.28;2.58;;;;;;;;;;5091292;28;20057;-75
2021/12/01 08:47:35;;;;;;;3.92;2.90;;;;;;;;;;5088466;28;20054;-77
2021/12/01 08:50:01;;;;;;;4.57;3.00;;;;;;;;;;5097058;28;20404;-78
2021/12/01 08:52:27;;;;;;;4.93;3.53;;;;;;;;;;5082663;28;20036;-78
2021/12/01 08:54:53;;;;;;;4.30;3.30;;;;;;;;;;5091364;28;20036;-76
2021/12/01 08:57:19;;;;;;;4.55;3.30;;;;;;;;;;5091110;28;20040;-79
2021/12/01 08:59:47;;;;;;;4.95;3.30;;;;;;;;;;5091250;28;20071;-79
2021/12/01 09:02:13;;;;;;;4.80;3.20;;;;;;;;;;5078483;28;20071;-78
2021/12/01 09:04:39;;;;;;;4.15;2.92;;;;;;;;;;5087589;28;20043;-77
2021/12/01 09:07:05;;;;;;;4.57;3.65;;;;;;;;;;5090290;28;20511;-78
2021/12/01 09:09:31;;;;;;;4.30;3.13;;;;;;;;;;5091078;28;20085;-78
2021/12/01 09:11:57;;;;;;;4.75;3.30;;;;;;;;;;5088669;28;20048;-76
2021/12/01 09:14:24;;;;;;;5.65;2.90;;;;;;;;;;5094005;28;20032;-79
2021/12/01 09:16:50;;;;;;;4.85;1.85;;;;;;;;;;5091852;28;20532;-78
2021/12/01 09:19:17;;;;;;;5.22;2.00;;;;;;;;;;5093410;28;20043;-78
2021/12/01 09:21:43;;;;;;;5.07;1.80;;;;;;;;;;5092936;28;20036;-77
2021/12/01 09:24:09;;;;;;;5.93;1.90;;;;;;;;;;5094244;28;20515;-77
2021/12/01 09:26:35;;;;;;;6.50;2.35;;;;;;;;;;5092991;28;20126;-78
2021/12/01 09:29:02;;;;;;;6.28;2.00;;;;;;;;;;5093840;28;20074;-76
2021/12/01 09:31:28;;;;;;;8.10;1.80;;;;;;;;;;5094123;28;20510;-75
2021/12/01 09:33:54;;;;;;;5.68;1.90;;;;;;;;;;5094355;28;20043;-75
2021/12/01 09:36:20;;;;;;;5.65;1.38;;;;;;;;;;5092965;28;20036;-75
2021/12/01 09:38:46;;;;;;;8.30;2.05;;;;;;;;;;5094108;28;20043;-74
2021/12/01 09:41:12;;;;;;;8.15;1.40;;;;;;;;;;5094260;28;20048;-76
2021/12/01 09:43:38;;;;;;;7.28;1.80;;;;;;;;;;5094065;28;20394;-75
2021/12/01 09:46:09;;;;;;;7.97;1.70;;;;;;;;;;5075629;28;20044;-74
2021/12/01 09:48:35;;;;;;;6.43;1.63;;;;;;;;;;5093972;28;20044;-75
2021/12/01 09:51:01;;;;;;;9.90;1.48;;;;;;;;;;5082673;28;20044;-73
2021/12/01 09:53:27;;;;;;;6.10;1.33;;;;;;;;;;5093462;28;20044;-72
2021/12/01 09:55:53;;;;;;;8.70;1.30;;;;;;;;;;5092671;28;20447;-74
2021/12/01 09:58:20;;;;;;;5.13;1.40;;;;;;;;;;5090319;28;20051;-74
2021/12/01 10:00:48;;;;;;;7.30;1.55;;;;;;;;;;5073901;28;20040;-73
2021/12/01 10:03:14;;;;;;;8.88;1.65;;;;;;;;;;5092088;28;20047;-72
2021/12/01 10:05:46;;;;;;;8.68;1.83;;;;;;;;;;5084484;28;20040;-72
2021/12/01 10:08:20;;;;;;;6.22;1.30;;;;;;;;;;5093705;28;20047;-72
2021/12/01 10:10:46;;;;;;;5.57;1.08;;;;;;;;;;5092680;28;20147;-74
2021/12/01 10:13:13;;;;;;;7.82;1.13;;;;;;;;;;5091493;28;20111;-74
2021/12/01 10:15:39;;;;;;;6.00;1.13;;;;;;;;;;5092034;28;20092;-74
2021/12/01 10:18:31;;;;;;;2.75;1.02;;;;;;;;;;5093274;28;20040;-74
2021/12/01 10:20:59;;;;;;;6.38;1.15;;;;;;;;;;5085048;28;20048;-74
2021/12/01 10:23:25;;;;;;;6.90;1.20;;;;;;;;;;5092564;28;20071;-73
2021/12/01 10:25:51;;;;;;;6.35;1.27;;;;;;;;;;5092145;28;20047;-73
2021/12/01 10:28:34;;;;;;;4.63;0.90;;;;;;;;;;5083747;28;20036;-73
2021/12/01 10:31:00;;;;;;;6.15;1.27;;;;;;;;;;5091406;28;20050;-72
2021/12/01 10:33:28;;;;;;;6.10;0.95;;;;;;;;;;5085275;28;20127;-72
2021/12/01 10:35:54;;;;;;;9.10;1.63;;;;;;;;;;5092659;28;20047;-73
2021/12/01 10:38:30;;;;;;;6.03;1.13;;;;;;;;;;5092400;28;20028;-73
2021/12/01 10:41:11;;;;;;;6.22;1.08;;;;;;;;;;5085580;28;20043;-71
2021/12/01 10:43:39;;;;;;;6.38;1.13;;;;;;;;;;5085944;28;20044;-72
2021/12/01 10:46:09;;;;;;;5.30;1.27;;;;;;;;;;5091503;28;20068;-72
2021/12/01 10:48:35;;;;;;;10.43;1.40;;;;;;;;;;5091936;28;20044;-72
2021/12/01 10:51:01;;;;;;;9.63;1.65;;;;;;;;;;5090536;28;20043;-73
2021/12/01 10:53:29;;;;;;;8.63;1.23;;;;;;;;;;5091562;28;20070;-72
2021/12/01 10:55:56;;;;;;;7.38;1.30;;;;;;;;;;5105501;28;20058;-73
2021/12/01 10:58:23;;;;;;;6.88;1.42;;;;;;;;;;5091860;28;20039;-72
2021/12/01 11:00:50;;;;;;;7.47;1.20;;;;;;;;;;5086689;28;20041;-70
2021/12/01 11:03:20;;;;;;;9.73;1.58;;;;;;;;;;5091943;28;20097;-72
2021/12/01 11:05:51;;;;;;;10.40;1.67;;;;;;;;;;5092339;28;20737;-72
2021/12/01 11:08:21;;;;;;;13.30;2.05;;;;;;;;;;5091708;28;20125;-71
2021/12/01 11:10:53;;;;;;;5.40;1.23;;;;;;;;;;5090126;28;20047;-72
2021/12/01 11:13:19;;;;;;;;;;;;;;;;;;5082464;28;20047;-72
2021/12/01 11:15:46;;;;;;;6.85;1.30;;;;;;;;;;5091481;28;19916;-72
2021/12/01 11:18:23;;;;;;;8.35;1.48;;;;;;;;;;5076496;28;20489;-72
2021/12/01 11:20:50;;;;;;;10.90;1.80;;;;;;;;;;5089167;28;20039;-72
2021/12/01 11:23:16;;;;;;;9.77;1.80;;;;;;;;;;5091909;28;20040;-71
2021/12/01 11:25:43;;;;;;;7.05;1.30;;;;;;;;;;5092312;28;20036;-71
2021/12/01 11:28:13;;;;;;;14.85;2.03;;;;;;;;;;5091641;28;20028;-72
2021/12/01 11:30:40;;;;;;;5.87;1.43;;;;;;;;;;5094276;28;20075;-71
2021/12/01 11:33:06;;;;;;;10.70;1.55;;;;;;;;;;5093465;28;20111;-72
2021/12/01 11:35:32;;;;;;;13.18;2.05;;;;;;;;;;5091564;28;20051;-71
2021/12/01 11:37:58;;;;;;;10.75;1.40;;;;;;;;;;5091556;28;20077;-71
2021/12/01 11:40:31;;;;;;;12.75;1.88;;;;;;;;;;5091297;28;20485;-71
2021/12/01 11:42:57;;;;;;;17.73;2.08;;;;;;;;;;5089760;28;20042;-70
2021/12/01 11:45:24;;;;;;;10.55;2.47;;;;;;;;;;5091303;28;20036;-71
2021/12/01 11:47:51;;;;;;;13.63;2.08;;;;;;;;;;5091689;28;20048;-71
2021/12/01 11:50:32;;;;;;;11.25;2.25;;;;;;;;;;5090089;28;20553;-71
2021/12/01 11:53:15;;;;;;;9.77;2.20;;;;;;;;;;5091449;28;20040;-71
2021/12/01 11:56:01;;;;;;;14.15;2.58;;;;;;;;;;5086971;28;20342;-71
2021/12/01 11:58:46;;;;;;;8.20;1.90;;;;;;;;;;5087440;28;20040;-71
2021/12/01 12:01:21;;;;;;;15.10;2.85;;;;;;;;;;5090853;28;20508;-71
2021/12/01 12:03:47;;;;;;;15.20;2.47;;;;;;;;;;5084202;28;20039;-71
2021/12/01 12:06:20;;;;;;;11.10;2.20;;;;;;;;;;5091089;28;20028;-71
2021/12/01 12:08:56;;;;;;;9.45;1.90;;;;;;;;;;5091260;28;20119;-70
2021/12/01 12:11:41;;;;;;;15.60;2.80;;;;;;;;;;5073664;28;20047;-70
2021/12/01 12:14:18;;;;;;;15.30;2.58;;;;;;;;;;5090705;28;20494;-71
2021/12/01 12:17:03;;;;;;;10.00;2.15;;;;;;;;;;5090104;28;20032;-71
2021/12/01 12:19:48;;;;;;;14.85;2.63;;;;;;;;;;5087246;28;20485;-71
2021/12/01 12:22:17;;;;;;;8.07;2.00;;;;;;;;;;5081722;28;20036;-71
2021/12/01 12:24:47;;;;;;;11.30;2.65;;;;;;;;;;5091276;28;20406;-72
2021/12/01 12:27:33;;;;;;;10.75;2.20;;;;;;;;;;5091013;28;20052;-71
2021/12/01 12:29:59;;;;;;;10.05;2.05;;;;;;;;;;5090163;28;20040;-72
2021/12/01 12:32:29;;;;;;;15.48;2.30;;;;;;;;;;5097828;28;20032;-71
2021/12/01 12:34:56;;;;;;;14.88;2.60;;;;;;;;;;5089616;28;20040;-72
2021/12/01 12:37:24;;;;;;;12.18;2.33;;;;;;;;;;5087208;28;20490;-71
2021/12/01 12:39:51;;;;;;;13.27;2.00;;;;;;;;;;5089470;28;20489;-70
2021/12/01 12:42:17;;;;;;;11.35;2.40;;;;;;;;;;5089428;28;20048;-70
2021/12/01 12:44:45;;;;;;;11.02;2.28;;;;;;;;;;5090929;28;20101;-70
2021/12/01 12:47:17;;;;;;;14.35;2.30;;;;;;;;;;5091421;28;20119;-72
2021/12/01 12:49:44;;;;;;;9.65;2.20;;;;;;;;;;5092083;28;20078;-70
2021/12/01 12:52:25;;;;;;;8.27;1.92;;;;;;;;;;5092526;28;20538;-71
2021/12/01 12:54:51;;;;;;;;;;;;;;;;;;5089086;28;20036;-72
2021/12/01 12:57:17;;;;;;;8.52;1.83;;;;;;;;;;5087687;28;19917;-71
2021/12/01 12:59:43;;;;;;;14.15;2.65;;;;;;;;;;5093028;28;20051;-72
2021/12/01 13:02:09;;;;;;;14.35;2.50;;;;;;;;;;5094156;28;20113;-72
2021/12/01 13:04:48;;;;;;;12.52;2.55;;;;;;;;;;5090128;28;20489;-70
2021/12/01 13:07:32;;;;;;;14.23;2.33;;;;;;;;;;5093081;28;20111;-70
2021/12/01 13:10:07;;;;;;;16.58;2.53;;;;;;;;;;5088282;28;20039;-70
2021/12/01 13:12:52;;;;;;;18.05;3.83;;;;;;;;;;5089745;28;20037;-71
2021/12/01 13:15:18;;;;;;;19.27;2.80;;;;;;;;;;5093707;28;20047;-69
2021/12/01 13:17:48;;;;;;;10.00;2.20;;;;;;;;;;5059224;28;20040;-72
2021/12/01 13:20:16;;;;;;;9.63;1.67;;;;;;;;;;5092106;28;20489;-71
2021/12/01 13:22:42;;;;;;;10.18;1.98;;;;;;;;;;5093178;28;20044;-71
2021/12/01 13:25:16;;;;;;;12.88;2.53;;;;;;;;;;5094346;28;20111;-71
2021/12/01 13:27:45;;;;;;;6.93;1.48;;;;;;;;;;5092564;28;20039;-71
2021/12/01 13:30:11;;;;;;;11.52;2.33;;;;;;;;;;5091657;28;20493;-71
2021/12/01 13:32:37;;;;;;;14.40;2.00;;;;;;;;;;5093961;28;20044;-71
2021/12/01 13:35:04;;;;;;;10.43;2.10;;;;;;;;;;5094361;28;20077;-71
2021/12/01 13:37:30;;;;;;;10.82;1.98;;;;;;;;;;5093679;28;20028;-71
2021/12/01 13:39:56;;;;;;;10.52;1.90;;;;;;;;;;5093269;28;20058;-71
2021/12/01 13:42:24;;;;;;;10.13;1.58;;;;;;;;;;5092785;28;20039;-71
2021/12/01 13:44:50;;;;;;;9.77;1.48;;;;;;;;;;5094543;28;20040;-71
2021/12/01 13:47:18;;;;;;;8.13;1.50;;;;;;;;;;5094293;28;20039;-71
2021/12/01 13:49:47;;;;;;;6.40;1.38;;;;;;;;;;5093857;28;20072;-72
2021/12/01 13:55:16;;;;;;;6.13;1.88;;;;;;;;;;5091227;28;20067;-65
2021/12/01 13:57:43;;;;;;;8.13;1.40;;;;;;;;;;5093665;28;20052;-65
2021/12/01 14:00:09;;;;;;;8.00;1.30;;;;;;;;;;5074101;28;20394;-65
2021/12/01 14:02:35;;;;;;;8.80;1.50;;;;;;;;;;5074419;28;20047;-66
2021/12/01 14:05:02;;;;;;;11.45;1.25;;;;;;;;;;5083499;28;20071;-65
2021/12/01 14:07:41;;;;;;;7.97;1.50;;;;;;;;;;5093421;28;20126;-65
2021/12/01 14:10:12;;;;;;;11.05;1.30;;;;;;;;;;5074527;28;20075;-65
2021/12/01 14:12:38;;;;;;;7.20;1.55;;;;;;;;;;5081745;28;20478;-65
2021/12/01 14:15:04;;;;;;;12.00;1.83;;;;;;;;;;5090838;28;20034;-65
2021/12/01 14:17:31;;;;;;;10.98;2.00;;;;;;;;;;5087696;28;20505;-65
2021/12/01 14:19:57;;;;;;;8.90;1.65;;;;;;;;;;5093229;28;20040;-65
2021/12/01 14:22:26;;;;;;;6.45;1.30;;;;;;;;;;5088497;28;20047;-65
2021/12/01 14:24:54;;;;;;;7.03;1.20;;;;;;;;;;5079909;28;20498;-65
2021/12/01 14:27:28;;;;;;;7.68;1.27;;;;;;;;;;5090185;28;20133;-65
2021/12/01 14:29:58;;;;;;;5.03;1.25;;;;;;;;;;5094106;28;20047;-65
2021/12/01 14:32:24;;;;;;;8.82;1.50;;;;;;;;;;5092215;28;20040;-65
2021/12/01 14:34:53;;;;;;;8.68;1.20;;;;;;;;;;5091034;28;20118;-65
2021/12/01 14:37:20;;;;;;;3.80;1.33;;;;;;;;;;5091930;28;20070;-65
2021/12/01 14:39:46;;;;;;;11.77;1.70;;;;;;;;;;5093250;28;20086;-65
2021/12/01 14:42:13;;;;;;;10.05;1.30;;;;;;;;;;5092989;28;20055;-65
2021/12/01 14:44:41;;;;;;;13.68;1.88;;;;;;;;;;5092483;28;20040;-65
2021/12/01 14:47:11;;;;;;;8.60;1.27;;;;;;;;;;5093074;28;20123;-65